Time;durP1;ratioP1;P1;durP2;ratioP2;P2;SDS_P1;SDS_P2;PMS_P1;PMS_P2;Temp;Humidity;BMP_temperature;BMP_pressure;BME280_temperature;BME280_humidity;BME280_pressure;Samples;Min_cycle;Max_cycle;Signal;HPM_P1;HPM_P2
2021/12/18 00:01:32;;;;;;;;;;;;;;;;;;5034550;28;19937;-79
2021/12/18 00:03:58;;;;;;;;;;;;;;;;;;5034826;28;19921;-80
2021/12/18 00:06:23;;;;;;;;;;;;;;;;;;5034831;28;19927;-80
2021/12/18 00:08:50;;;;;;;;;;;;;;;;;;5035419;28;19968;-80
2021/12/18 00:11:18;;;;;;;;;;;;;;;;;;5035772;28;19956;-80
2021/12/18 00:13:43;;;;;;;;;;;;;;;;;;5035199;28;19958;-80
2021/12/18 00:16:08;;;;;;;;;;;;;;;;;;5035047;28;20039;-80
2021/12/18 00:18:35;;;;;;;;;;;;;;;;;;5034751;28;20298;-80
2021/12/18 00:21:00;;;;;;;;;;;;;;;;;;5035730;28;19923;-80
2021/12/18 00:23:26;;;;;;;;;;;;;;;;;;5035004;28;19999;-80
2021/12/18 00:25:51;;;;;;;;;;;;;;;;;;5035408;28;19913;-80
2021/12/18 00:28:16;;;;;;;;;;;;;;;;;;5034397;28;20370;-80
2021/12/18 00:30:44;;;;;;;;;;;;;;;;;;5034777;28;19917;-79
2021/12/18 00:33:09;;;;;;;;;;;;;;;;;;5034413;28;19925;-80
2021/12/18 00:35:35;;;;;;;;;;;;;;;;;;5035118;28;20009;-80
2021/12/18 00:38:04;;;;;;;;;;;;;;;;;;5035199;28;19913;-80
2021/12/18 00:40:36;;;;;;;;;;;;;;;;;;5034142;28;19928;-80
2021/12/18 00:43:13;;;;;;;;;;;;;;;;;;5035370;28;19913;-80
2021/12/18 00:45:38;;;;;;;;;;;;;;;;;;5019784;28;19940;-80
2021/12/18 00:48:04;;;;;;;;;;;;;;;;;;5034738;28;20324;-80
2021/12/18 00:50:30;;;;;;;;;;;;;;;;;;5034428;28;20010;-80
2021/12/18 00:52:55;;;;;;;;;;;;;;;;;;5034797;28;19917;-80
2021/12/18 00:55:21;;;;;;;;;;;;;;;;;;5035221;28;19913;-80
2021/12/18 00:57:46;;;;;;;;;;;;;;;;;;5033952;28;19924;-80
2021/12/18 01:00:14;;;;;;;;;;;;;;;;;;5034776;28;19940;-80
2021/12/18 01:02:44;;;;;;;;;;;;;;;;;;5034579;28;19917;-80
2021/12/18 01:05:09;;;;;;;;;;;;;;;;;;5034762;28;20011;-79
2021/12/18 01:07:35;;;;;;;;;;;;;;;;;;5033241;28;19941;-80
2021/12/18 01:10:24;;;;;;;;;;;;;;;;;;5034470;28;19917;-80
2021/12/18 01:12:54;;;;;;;;;;;;;;;;;;5033155;28;19917;-79
2021/12/18 01:15:28;;;;;;;;;;;;;;;;;;5033485;28;19932;-80
2021/12/18 01:23:22;;;;;;;;;;;;;;;;;;5034349;28;20015;-79
2021/12/18 01:25:50;;;;;;;;;;;;;;;;;;5034210;28;19927;-79
2021/12/18 01:28:15;;;;;;;;;;;;;;;;;;5034050;28;20003;-79
2021/12/18 01:30:41;;;;;;;;;;;;;;;;;;5033146;28;19944;-79
2021/12/18 01:33:06;;;;;;;;;;;;;;;;;;5031932;28;19920;-79
2021/12/18 01:35:31;;;;;;;;;;;;;;;;;;5033729;28;19931;-80
2021/12/18 01:37:57;;;;;;;;;;;;;;;;;;5034074;28;19921;-79
2021/12/18 01:40:23;;;;;;;;;;;;;;;;;;5034023;28;19936;-80
2021/12/18 01:53:11;;;;;;;;;;;;;;;;;;5029214;28;20621;-78
2021/12/18 01:55:37;;;;;;;;;;;;;;;;;;5033119;28;19957;-78
2021/12/18 01:58:03;;;;;;;;;;;;;;;;;;5033517;28;19917;-78
2021/12/18 02:00:31;;;;;;;;;;;;;;;;;;5030601;28;19928;-79
2021/12/18 02:02:58;;;;;;;;;;;;;;;;;;5032064;28;19935;-79
2021/12/18 02:05:23;;;;;;;;;;;;;;;;;;5032361;28;19975;-78
2021/12/18 02:07:49;;;;;;;;;;;;;;;;;;5031425;28;19960;-78
2021/12/18 02:10:20;;;;;;;;;;;;;;;;;;5031177;28;19917;-79
2021/12/18 02:12:54;;;;;;;;;;;;;;;;;;5031878;28;19979;-78
2021/12/18 02:20:51;;;;;;;;;;;;;;;;;;5032467;28;20376;-77
2021/12/18 02:23:19;;;;;;;;;;;;;;;;;;5032748;28;19917;-77
2021/12/18 02:25:45;;;;;;;;;;;;;;;;;;5033468;28;19996;-77
2021/12/18 02:28:20;;;;;;;;;;;;;;;;;;5032966;28;19913;-77
2021/12/18 02:30:46;;;;;;;;;;;;;;;;;;5033346;28;19913;-77
2021/12/18 02:33:11;;;;;;;;;;;;;;;;;;5033048;28;19929;-77
2021/12/18 02:35:42;;;;;;;;;;;;;;;;;;5033154;28;19948;-77
2021/12/18 02:38:14;;;;;;;;;;;;;;;;;;5032718;28;19921;-77
2021/12/18 02:40:59;;;;;;;;;;;;;;;;;;5030797;28;20342;-77
2021/12/18 02:43:29;;;;;;;;;;;;;;;;;;5032579;28;19927;-77
2021/12/18 02:45:58;;;;;;;;;;;;;;;;;;5034820;28;20330;-77
2021/12/18 02:48:24;;;;;;;;;;;;;;;;;;5036096;28;19943;-77
2021/12/18 02:50:49;;;;;;;;;;;;;;;;;;5036986;28;20327;-77
2021/12/18 02:53:14;;;;;;;;;;;;;;;;;;5035694;28;19921;-77
2021/12/18 02:55:39;;;;;;;;;;;;;;;;;;5033478;28;19935;-78
2021/12/18 02:58:05;;;;;;;;;;;;;;;;;;5036273;28;20338;-78
2021/12/18 03:00:30;;;;;;;;;;;;;;;;;;5033631;28;19936;-77
2021/12/18 03:02:56;;;;;;;;;;;;;;;;;;5022403;28;19932;-77
2021/12/18 03:05:29;;;;;;;;;;;;;;;;;;5034781;28;19920;-78
2021/12/18 03:08:06;;;;;;;;;;;;;;;;;;5036160;28;20384;-77
2021/12/18 03:19:42;;;;;;;;;;;;;;;;;;5036680;28;20067;-77
2021/12/18 03:24:31;;;;;;;;;;;;;;;;;;5036854;28;19960;-77
2021/12/18 03:26:56;;;;;;;;;;;;;;;;;;5036482;28;20266;-77
2021/12/18 03:29:21;;;;;;;;;;;;;;;;;;5036228;28;19924;-77
2021/12/18 03:31:46;;;;;;;;;;;;;;;;;;5037248;28;20072;-78
2021/12/18 03:34:12;;;;;;;;;;;;;;;;;;5038415;28;19986;-77
2021/12/18 03:36:37;;;;;;;;;;;;;;;;;;5035298;28;19930;-77
2021/12/18 03:39:02;;;;;;;;;;;;;;;;;;5036104;28;19936;-78
2021/12/18 03:41:27;;;;;;;;;;;;;;;;;;5035485;28;19917;-78
2021/12/18 03:43:53;;;;;;;;;;;;;;;;;;5036605;28;19996;-78
2021/12/18 03:46:18;;;;;;;;;;;;;;;;;;5036181;28;19917;-78
2021/12/18 03:48:43;;;;;;;;;;;;;;;;;;5036029;28;19957;-79
2021/12/18 03:51:08;;;;;;;;;;;;;;;;;;5035588;28;20301;-78
2021/12/18 03:53:34;;;;;;;;;;;;;;;;;;5035487;28;19921;-79
2021/12/18 03:56:00;;;;;;;;;;;;;;;;;;5035932;28;19917;-78
2021/12/18 03:58:25;;;;;;;;;;;;;;;;;;5033015;28;19924;-78
2021/12/18 04:00:53;;;;;;;;;;;;;;;;;;5045191;28;20000;-77
2021/12/18 04:03:18;;;;;;;;;;;;;;;;;;5039503;28;19920;-77
2021/12/18 04:05:43;;;;;;;;;;;;;;;;;;5034073;28;19913;-78
2021/12/18 04:08:08;;;;;;;;;;;;;;;;;;5035270;28;19935;-78
2021/12/18 04:10:34;;;;;;;;;;;;;;;;;;5035315;28;20309;-78
2021/12/18 04:13:00;;;;;;;;;;;;;;;;;;5034717;28;20364;-78
2021/12/18 04:15:25;;;;;;;;;;;;;;;;;;5035469;28;20289;-78
2021/12/18 04:17:50;;;;;;;;;;;;;;;;;;5034568;28;20262;-78
2021/12/18 04:20:16;;;;;;;;;;;;;;;;;;5034359;28;20281;-78
2021/12/18 04:22:41;;;;;;;;;;;;;;;;;;5034875;28;19921;-78
2021/12/18 04:25:06;;;;;;;;;;;;;;;;;;5034929;28;20318;-78
2021/12/18 04:27:31;;;;;;;;;;;;;;;;;;5035212;28;19913;-78
2021/12/18 04:29:57;;;;;;;;;;;;;;;;;;5035285;28;19920;-78
2021/12/18 04:32:22;;;;;;;;;;;;;;;;;;5034714;28;20314;-78
2021/12/18 04:34:47;;;;;;;;;;;;;;;;;;5034829;28;19921;-78
2021/12/18 04:37:12;;;;;;;;;;;;;;;;;;5034231;28;19913;-78
2021/12/18 04:39:38;;;;;;;;;;;;;;;;;;5034194;28;19925;-78
2021/12/18 04:42:05;;;;;;;;;;;;;;;;;;5034490;28;19917;-78
2021/12/18 04:44:30;;;;;;;;;;;;;;;;;;5034977;28;20000;-78
2021/12/18 04:46:56;;;;;;;;;;;;;;;;;;5034947;28;19996;-78
2021/12/18 04:49:21;;;;;;;;;;;;;;;;;;5033742;28;20004;-78
2021/12/18 04:51:47;;;;;;;;;;;;;;;;;;5034595;28;19921;-78
2021/12/18 04:54:12;;;;;;;;;;;;;;;;;;5034695;28;19917;-78
2021/12/18 04:56:37;;;;;;;;;;;;;;;;;;5034469;28;19917;-78
2021/12/18 04:59:04;;;;;;;;;;;;;;;;;;5034605;28;19917;-79
2021/12/18 05:01:29;;;;;;;;;;;;;;;;;;5026218;28;20277;-78
2021/12/18 05:03:57;;;;;;;;;;;;;;;;;;5034413;28;19917;-78
2021/12/18 05:06:22;;;;;;;;;;;;;;;;;;5016436;28;19913;-78
2021/12/18 05:08:47;;;;;;;;;;;;;;;;;;5032555;28;19921;-78
2021/12/18 05:11:13;;;;;;;;;;;;;;;;;;5034668;28;19913;-78
2021/12/18 05:13:38;;;;;;;;;;;;;;;;;;5033843;28;19921;-79
2021/12/18 05:16:05;;;;;;;;;;;;;;;;;;5034517;28;19928;-79
2021/12/18 05:18:31;;;;;;;;;;;;;;;;;;5033949;28;19927;-79
2021/12/18 05:20:56;;;;;;;;;;;;;;;;;;5034383;28;20007;-79
2021/12/18 05:23:21;;;;;;;;;;;;;;;;;;5033287;28;19917;-78
2021/12/18 05:25:46;;;;;;;;;;;;;;;;;;5034260;28;19917;-78
2021/12/18 05:28:12;;;;;;;;;;;;;;;;;;5034053;28;19917;-78
2021/12/18 05:30:39;;;;;;;;;;;;;;;;;;5033850;28;19921;-78
2021/12/18 05:33:07;;;;;;;;;;;;;;;;;;5033642;28;19921;-78
2021/12/18 05:35:32;;;;;;;;;;;;;;;;;;5033630;28;19917;-78
2021/12/18 05:38:04;;;;;;;;;;;;;;;;;;5034087;28;20032;-78
2021/12/18 05:40:32;;;;;;;;;;;;;;;;;;5034357;28;20308;-78
2021/12/18 05:42:57;;;;;;;;;;;;;;;;;;5033594;28;19932;-78
2021/12/18 05:45:23;;;;;;;;;;;;;;;;;;5032483;28;20000;-78
2021/12/18 05:47:48;;;;;;;;;;;;;;;;;;5033688;28;19913;-80
2021/12/18 05:50:15;;;;;;;;;;;;;;;;;;5033235;28;19913;-79
2021/12/18 05:52:44;;;;;;;;;;;;;;;;;;5033078;28;19920;-79
2021/12/18 05:55:10;;;;;;;;;;;;;;;;;;5032592;28;19917;-79
2021/12/18 05:57:35;;;;;;;;;;;;;;;;;;5033455;28;19975;-78
2021/12/18 06:00:01;;;;;;;;;;;;;;;;;;5032866;28;19913;-80
2021/12/18 06:02:26;;;;;;;;;;;;;;;;;;5033797;28;19940;-79
2021/12/18 06:04:51;;;;;;;;;;;;;;;;;;5032571;28;19916;-79
2021/12/18 06:07:28;;;;;;;;;;;;;;;;;;5032795;28;19924;-79
2021/12/18 06:09:54;;;;;;;;;;;;;;;;;;5033738;28;19925;-78
2021/12/18 06:12:19;;;;;;;;;;;;;;;;;;5032936;28;19979;-79
2021/12/18 06:14:44;;;;;;;;;;;;;;;;;;5032364;28;19917;-79
2021/12/18 06:17:12;;;;;;;;;;;;;;;;;;5032462;28;19928;-79
2021/12/18 06:19:37;;;;;;;;;;;;;;;;;;5034883;28;19943;-80
2021/12/18 06:22:02;;;;;;;;;;;;;;;;;;5036997;28;20000;-80
2021/12/18 06:24:28;;;;;;;;;;;;;;;;;;5037710;28;20381;-80
2021/12/18 06:26:54;;;;;;;;;;;;;;;;;;5037425;28;20277;-80
2021/12/18 06:29:19;;;;;;;;;;;;;;;;;;5036004;28;19975;-80
2021/12/18 06:31:44;;;;;;;;;;;;;;;;;;5035551;28;19921;-80
2021/12/18 06:34:10;;;;;;;;;;;;;;;;;;5037357;28;19927;-80
2021/12/18 06:36:37;;;;;;;;;;;;;;;;;;5037209;28;19921;-80
2021/12/18 06:39:02;;;;;;;;;;;;;;;;;;5037460;28;19913;-80
2021/12/18 06:41:28;;;;;;;;;;;;;;;;;;5036373;28;19924;-80
2021/12/18 06:43:53;;;;;;;;;;;;;;;;;;5035982;28;19917;-81
2021/12/18 06:46:18;;;;;;;;;;;;;;;;;;5036298;28;19975;-80
2021/12/18 06:48:43;;;;;;;;;;;;;;;;;;5035895;28;19913;-80
2021/12/18 06:51:08;;;;;;;;;;;;;;;;;;5037150;28;19917;-80
2021/12/18 06:53:36;;;;;;;;;;;;;;;;;;5035945;28;19921;-85
2021/12/18 06:56:03;;;;;;;;;;;;;;;;;;5037039;28;20396;-80
2021/12/18 06:58:29;;;;;;;;;;;;;;;;;;5036543;28;19960;-79
2021/12/18 07:00:56;;;;;;;;;;;;;;;;;;5036663;28;20030;-78
2021/12/18 07:03:21;;;;;;;;;;;;;;;;;;5036533;28;19961;-79
2021/12/18 07:05:47;;;;;;;;;;;;;;;;;;5035894;28;19998;-80
2021/12/18 07:08:12;;;;;;;;;;;;;;;;;;5036373;28;19989;-79
2021/12/18 07:10:38;;;;;;;;;;;;;;;;;;5036758;28;19917;-79
2021/12/18 07:13:03;;;;;;;;;;;;;;;;;;5035708;28;20261;-79
2021/12/18 07:15:28;;;;;;;;;;;;;;;;;;5035852;28;19924;-80
2021/12/18 07:17:54;;;;;;;;;;;;;;;;;;5036521;28;20012;-79
2021/12/18 07:20:19;;;;;;;;;;;;;;;;;;5036818;28;19921;-79
2021/12/18 07:22:44;;;;;;;;;;;;;;;;;;5036748;28;19921;-80
2021/12/18 07:25:12;;;;;;;;;;;;;;;;;;5036224;28;19913;-80
2021/12/18 07:27:39;;;;;;;;;;;;;;;;;;5035703;28;20295;-79
2021/12/18 07:30:05;;;;;;;;;;;;;;;;;;5035389;28;19917;-79
2021/12/18 07:32:30;;;;;;;;;;;;;;;;;;5034069;28;19932;-80
2021/12/18 07:34:56;;;;;;;;;;;;;;;;;;5034856;28;19918;-79
2021/12/18 07:37:23;;;;;;;;;;;;;;;;;;5034911;28;20262;-79
2021/12/18 07:39:51;;;;;;;;;;;;;;;;;;5036299;28;20016;-79
2021/12/18 07:42:19;;;;;;;;;;;;;;;;;;5035287;28;19917;-79
2021/12/18 07:44:49;;;;;;;;;;;;;;;;;;5036537;28;19913;-79
2021/12/18 07:47:14;;;;;;;;;;;;;;;;;;5016479;28;19929;-79
2021/12/18 07:49:39;;;;;;;;;;;;;;;;;;5035392;28;20247;-79
2021/12/18 07:52:05;;;;;;;;;;;;;;;;;;5037555;28;19917;-80
2021/12/18 07:54:30;;;;;;;;;;;;;;;;;;5035514;28;20353;-79
2021/12/18 07:56:56;;;;;;;;;;;;;;;;;;5036137;28;20350;-79
2021/12/18 07:59:33;;;;;;;;;;;;;;;;;;5035195;28;20257;-80
2021/12/18 08:02:04;;;;;;;;;;;;;;;;;;5026300;28;19917;-79
2021/12/18 08:04:30;;;;;;;;;;;;;;;;;;5031540;28;19928;-79
2021/12/18 08:06:55;;;;;;;;;;;;;;;;;;5035580;28;19917;-79
2021/12/18 08:09:20;;;;;;;;;;;;;;;;;;5034263;28;20008;-79
2021/12/18 08:11:46;;;;;;;;;;;;;;;;;;5039863;28;19955;-84
2021/12/18 08:14:13;;;;;;;;;;;;;;;;;;5037884;28;20231;-78
2021/12/18 08:16:38;;;;;;;;;;;;;;;;;;5037408;28;19917;-80
2021/12/18 08:19:06;;;;;;;;;;;;;;;;;;5035512;28;19917;-78
2021/12/18 08:21:32;;;;;;;;;;;;;;;;;;5034683;28;19913;-78
2021/12/18 08:23:57;;;;;;;;;;;;;;;;;;5034014;28;19928;-78
2021/12/18 08:26:25;;;;;;;;;;;;;;;;;;5034970;28;20465;-78
2021/12/18 08:28:52;;;;;;;;;;;;;;;;;;5033981;28;20302;-78
2021/12/18 08:31:18;;;;;;;;;;;;;;;;;;5035030;28;20365;-79
2021/12/18 08:33:43;;;;;;;;;;;;;;;;;;5034411;28;19924;-78
2021/12/18 08:36:11;;;;;;;;;;;;;;;;;;5035334;28;19913;-79
2021/12/18 08:38:38;;;;;;;;;;;;;;;;;;5034918;28;19921;-78
2021/12/18 08:41:03;;;;;;;;;;;;;;;;;;5034886;28;19916;-79
2021/12/18 08:43:29;;;;;;;;;;;;;;;;;;5034920;28;20043;-78
2021/12/18 08:45:56;;;;;;;;;;;;;;;;;;5033358;28;21631;-79
2021/12/18 08:48:21;;;;;;;;;;;;;;;;;;5038055;28;19917;-78
2021/12/18 08:50:47;;;;;;;;;;;;;;;;;;5035223;28;20162;-78
2021/12/18 08:53:12;;;;;;;;;;;;;;;;;;5034093;28;20232;-79
2021/12/18 08:55:37;;;;;;;;;;;;;;;;;;5032830;28;20243;-79
2021/12/18 08:58:03;;;;;;;;;;;;;;;;;;5034268;28;19971;-79
2021/12/18 09:00:30;;;;;;;;;;;;;;;;;;5034861;28;19967;-78
2021/12/18 09:02:57;;;;;;;;;;;;;;;;;;5034672;28;19975;-78
2021/12/18 09:05:24;;;;;;;;;;;;;;;;;;5034812;28;19920;-78
2021/12/18 09:07:50;;;;;;;;;;;;;;;;;;5034026;28;20254;-78
2021/12/18 09:10:18;;;;;;;;;;;;;;;;;;5034918;28;19917;-78
2021/12/18 09:12:43;;;;;;;;;;;;;;;;;;5033565;28;19917;-78
2021/12/18 09:15:09;;;;;;;;;;;;;;;;;;5034073;28;20306;-78
2021/12/18 09:17:34;;;;;;;;;;;;;;;;;;5033556;28;19952;-78
2021/12/18 09:19:59;;;;;;;;;;;;;;;;;;5033707;28;19917;-78
2021/12/18 09:22:27;;;;;;;;;;;;;;;;;;5033716;28;19928;-78
2021/12/18 09:24:52;;;;;;;;;;;;;;;;;;5033067;28;19923;-79
2021/12/18 09:27:19;;;;;;;;;;;;;;;;;;5032919;28;19921;-79
2021/12/18 09:29:44;;;;;;;;;;;;;;;;;;5027465;28;19917;-79
2021/12/18 09:32:09;;;;;;;;;;;;;;;;;;5016409;28;20305;-79
2021/12/18 09:34:37;;;;;;;;;;;;;;;;;;5032833;28;19940;-79
2021/12/18 09:37:02;;;;;;;;;;;;;;;;;;5033963;28;20264;-79
2021/12/18 09:39:28;;;;;;;;;;;;;;;;;;5033830;28;20000;-79
2021/12/18 09:41:54;;;;;;;;;;;;;;;;;;5033093;28;19923;-78
2021/12/18 09:44:29;;;;;;;;;;;;;;;;;;5016354;28;20023;-78
2021/12/18 09:46:59;;;;;;;;;;;;;;;;;;5034739;28;19913;-80
2021/12/18 09:49:27;;;;;;;;;;;;;;;;;;5033880;28;19917;-79
2021/12/18 09:51:52;;;;;;;;;;;;;;;;;;5032728;28;19917;-79
2021/12/18 09:54:18;;;;;;;;;;;;;;;;;;5032781;28;19931;-79
2021/12/18 09:56:46;;;;;;;;;;;;;;;;;;5032265;28;19948;-79
2021/12/18 09:59:11;;;;;;;;;;;;;;;;;;5033995;28;19920;-78
2021/12/18 10:01:39;;;;;;;;;;;;;;;;;;5032943;28;20035;-79
2021/12/18 10:04:05;;;;;;;;;;;;;;;;;;5033617;28;19932;-79
2021/12/18 10:06:35;;;;;;;;;;;;;;;;;;5033601;28;19916;-78
2021/12/18 10:09:03;;;;;;;;;;;;;;;;;;5033190;28;19921;-79
2021/12/18 10:11:31;;;;;;;;;;;;;;;;;;5033692;28;19913;-79
2021/12/18 10:13:58;;;;;;;;;;;;;;;;;;5033341;28;19921;-79
2021/12/18 10:16:24;;;;;;;;;;;;;;;;;;5033803;28;19913;-79
2021/12/18 10:18:50;;;;;;;;;;;;;;;;;;5033429;28;19927;-79
2021/12/18 10:21:19;;;;;;;;;;;;;;;;;;5033145;28;19917;-79
2021/12/18 10:23:45;;;;;;;;;;;;;;;;;;5031874;28;19917;-79
2021/12/18 10:26:31;;;;;;;;;;;;;;;;;;5033009;28;19975;-79
2021/12/18 10:28:57;;;;;;;;;;;;;;;;;;5028807;28;20346;-80
2021/12/18 10:31:43;;;;;;;;;;;;;;;;;;5032153;28;19921;-80
2021/12/18 10:34:15;;;;;;;;;;;;;;;;;;5033766;28;19921;-80
2021/12/18 10:36:40;;;;;;;;;;;;;;;;;;5014500;28;19928;-79
2021/12/18 10:39:06;;;;;;;;;;;;;;;;;;5032229;28;19917;-79
2021/12/18 10:41:32;;;;;;;;;;;;;;;;;;5033320;28;19917;-79
2021/12/18 10:43:59;;;;;;;;;;;;;;;;;;5033248;28;19928;-79
2021/12/18 10:46:24;;;;;;;;;;;;;;;;;;5016113;28;19914;-80
2021/12/18 10:49:00;;;;;;;;;;;;;;;;;;5033743;28;19928;-80
2021/12/18 10:51:27;;;;;;;;;;;;;;;;;;5033293;28;19927;-81
2021/12/18 10:53:54;;;;;;;;;;;;;;;;;;5033336;28;20029;-79
2021/12/18 10:56:44;;;;;;;;;;;;;;;;;;5030891;28;19917;-77
2021/12/18 10:59:44;;;;;;;;;;;;;;;;;;5032526;28;19917;-77
2021/12/18 11:02:13;;;;;;;;;;;;;;;;;;4978872;28;19948;-79
2021/12/18 11:04:44;;;;;;;;;;;;;;;;;;5030396;28;19917;-82
2021/12/18 11:07:17;;;;;;;;;;;;;;;;;;5032516;28;19917;-79
2021/12/18 11:09:59;;;;;;;;;;;;;;;;;;5026903;28;20255;-80
2021/12/18 11:15:08;;;;;;;;;;;;;;;;;;5028443;28;19967;-78
2021/12/18 11:17:34;;;;;;;;;;;;;;;;;;5031662;28;19968;-77
2021/12/18 11:20:02;;;;;;;;;;;;;;;;;;5037132;28;19986;-79
2021/12/18 11:22:28;;;;;;;;;;;;;;;;;;5026909;28;20248;-78
2021/12/18 11:25:08;;;;;;;;;;;;;;;;;;5027381;28;19971;-78
2021/12/18 11:27:37;;;;;;;;;;;;;;;;;;5034902;28;19917;-78
2021/12/18 11:30:06;;;;;;;;;;;;;;;;;;5029077;28;20541;-78
2021/12/18 11:32:40;;;;;;;;;;;;;;;;;;5035652;28;20317;-78
2021/12/18 11:35:10;;;;;;;;;;;;;;;;;;5033911;28;19913;-78
2021/12/18 11:37:45;;;;;;;;;;;;;;;;;;5033039;28;19917;-78
2021/12/18 11:40:11;;;;;;;;;;;;;;;;;;5023412;28;19944;-78
2021/12/18 11:42:37;;;;;;;;;;;;;;;;;;5033568;28;19925;-77
2021/12/18 11:45:05;;;;;;;;;;;;;;;;;;5031117;28;19971;-78
2021/12/18 11:47:36;;;;;;;;;;;;;;;;;;5029442;28;19917;-78
2021/12/18 11:50:26;;;;;;;;;;;;;;;;;;5034899;28;19953;-77
2021/12/18 11:53:05;;;;;;;;;;;;;;;;;;5034313;28;19967;-79
2021/12/18 11:55:34;;;;;;;;;;;;;;;;;;5032625;28;19917;-78
2021/12/18 11:58:24;;;;;;;;;;;;;;;;;;5033506;28;19913;-79
2021/12/18 12:00:55;;;;;;;;;;;;;;;;;;5032070;28;20259;-78
2021/12/18 12:03:53;;;;;;;;;;;;;;;;;;5031959;28;20255;-80
2021/12/18 12:06:31;;;;;;;;;;;;;;;;;;5019155;28;19925;-80
2021/12/18 12:09:22;;;;;;;;;;;;;;;;;;5033521;28;20027;-79
2021/12/18 12:12:06;;;;;;;;;;;;;;;;;;5032537;28;19917;-80
2021/12/18 12:14:32;;;;;;;;;;;;;;;;;;5034261;28;20538;-79
2021/12/18 12:17:07;;;;;;;;;;;;;;;;;;5034081;28;19921;-79
2021/12/18 12:19:43;;;;;;;;;;;;;;;;;;5034033;28;19912;-79
2021/12/18 12:22:09;;;;;;;;;;;;;;;;;;5051338;28;19943;-79
2021/12/18 12:24:54;;;;;;;;;;;;;;;;;;5032547;28;20015;-81
2021/12/18 12:27:28;;;;;;;;;;;;;;;;;;5034056;28;19917;-81
2021/12/18 12:29:53;;;;;;;;;;;;;;;;;;5034296;28;19928;-80
2021/12/18 12:32:20;;;;;;;;;;;;;;;;;;5034308;28;19929;-83
2021/12/18 12:35:04;;;;;;;;;;;;;;;;;;5031836;28;20011;-82
2021/12/18 12:37:30;;;;;;;;;;;;;;;;;;5030960;28;19916;-82
2021/12/18 12:40:02;;;;;;;;;;;;;;;;;;5034306;28;19925;-83
2021/12/18 12:42:29;;;;;;;;;;;;;;;;;;5034384;28;20078;-81
2021/12/18 12:45:03;;;;;;;;;;;;;;;;;;5035294;28;19917;-80
2021/12/18 12:47:31;;;;;;;;;;;;;;;;;;5034762;28;19936;-80
2021/12/18 12:49:57;;;;;;;;;;;;;;;;;;5035417;28;19913;-80
2021/12/18 12:52:24;;;;;;;;;;;;;;;;;;5036843;28;20019;-81
2021/12/18 12:54:54;;;;;;;;;;;;;;;;;;5023939;28;19968;-81
2021/12/18 12:57:22;;;;;;;;;;;;;;;;;;5033859;28;19921;-80
2021/12/18 12:59:51;;;;;;;;;;;;;;;;;;5046705;28;19917;-78
2021/12/18 13:02:16;;;;;;;;;;;;;;;;;;5031178;28;19917;-85
2021/12/18 13:04:44;;;;;;;;;;;;;;;;;;5021576;28;19928;-88
2021/12/18 13:07:09;;;;;;;;;;;;;;;;;;5036807;28;19925;-87
2021/12/18 13:09:34;;;;;;;;;;;;;;;;;;5025995;28;20378;-88
2021/12/18 13:12:04;;;;;;;;;;;;;;;;;;5034323;28;19982;-88
2021/12/18 13:14:36;;;;;;;;;;;;;;;;;;5034084;28;19925;-88
2021/12/18 13:17:02;;;;;;;;;;;;;;;;;;5033577;28;19928;-88
2021/12/18 13:19:31;;;;;;;;;;;;;;;;;;5048590;28;19920;-89
2021/12/18 13:21:56;;;;;;;;;;;;;;;;;;5055078;28;19913;-88
2021/12/18 13:24:21;;;;;;;;;;;;;;;;;;5053297;28;19923;-88
2021/12/18 13:26:46;;;;;;;;;;;;;;;;;;5054976;28;19913;-88
2021/12/18 13:29:16;;;;;;;;;;;;;;;;;;5052928;28;20004;-88
2021/12/18 13:31:45;;;;;;;;;;;;;;;;;;5052796;28;19921;-88
2021/12/18 13:34:15;;;;;;;;;;;;;;;;;;5024856;28;20016;-88
2021/12/18 13:36:46;;;;;;;;;;;;;;;;;;5028094;28;20004;-89
2021/12/18 13:39:13;;;;;;;;;;;;;;;;;;5035076;28;20060;-89
2021/12/18 13:41:39;;;;;;;;;;;;;;;;;;5041229;28;19995;-88
2021/12/18 13:44:04;;;;;;;;;;;;;;;;;;5039674;28;20468;-88
2021/12/18 13:46:30;;;;;;;;;;;;;;;;;;5016056;28;19917;-88
2021/12/18 13:48:56;;;;;;;;;;;;;;;;;;5027966;28;19917;-88
2021/12/18 13:51:25;;;;;;;;;;;;;;;;;;5034070;28;19923;-88
2021/12/18 13:53:55;;;;;;;;;;;;;;;;;;5025929;28;19921;-88
2021/12/18 13:56:23;;;;;;;;;;;;;;;;;;5032938;28;19920;-87
2021/12/18 13:58:51;;;;;;;;;;;;;;;;;;5027514;28;19928;-88
2021/12/18 14:01:20;;;;;;;;;;;;;;;;;;5039413;28;20243;-89
2021/12/18 14:03:58;;;;;;;;;;;;;;;;;;5033589;28;20021;-88
2021/12/18 14:06:33;;;;;;;;;;;;;;;;;;5030928;28;19913;-87
2021/12/18 14:09:04;;;;;;;;;;;;;;;;;;5033353;28;19917;-88
2021/12/18 14:11:37;;;;;;;;;;;;;;;;;;5034103;28;19917;-89
2021/12/18 14:14:09;;;;;;;;;;;;;;;;;;5033939;28;19952;-88
2021/12/18 14:16:34;;;;;;;;;;;;;;;;;;5033886;28;19917;-87
2021/12/18 14:19:01;;;;;;;;;;;;;;;;;;5033377;28;19924;-88
2021/12/18 14:21:37;;;;;;;;;;;;;;;;;;5033207;28;20285;-87
2021/12/18 14:24:02;;;;;;;;;;;;;;;;;;5034425;28;19924;-87
2021/12/18 14:26:28;;;;;;;;;;;;;;;;;;5032812;28;19914;-87
2021/12/18 14:28:59;;;;;;;;;;;;;;;;;;5033128;28;19913;-88
2021/12/18 14:31:24;;;;;;;;;;;;;;;;;;5033317;28;19917;-88
2021/12/18 14:33:52;;;;;;;;;;;;;;;;;;5032792;28;20247;-88
2021/12/18 14:36:17;;;;;;;;;;;;;;;;;;5032633;28;19925;-87
2021/12/18 14:38:55;;;;;;;;;;;;;;;;;;5032673;28;20260;-87
2021/12/18 14:41:20;;;;;;;;;;;;;;;;;;5033615;28;19928;-87
2021/12/18 14:44:05;;;;;;;;;;;;;;;;;;5037438;28;19929;-88
2021/12/18 14:46:31;;;;;;;;;;;;;;;;;;5036644;28;20407;-88
2021/12/18 14:49:07;;;;;;;;;;;;;;;;;;5037782;28;19921;-88
2021/12/18 14:51:32;;;;;;;;;;;;;;;;;;5037330;28;20326;-87
2021/12/18 14:54:01;;;;;;;;;;;;;;;;;;5037493;28;19979;-87
2021/12/18 14:56:26;;;;;;;;;;;;;;;;;;5035653;28;19924;-87
2021/12/18 14:58:51;;;;;;;;;;;;;;;;;;5037196;28;19913;-87
2021/12/18 15:01:18;;;;;;;;;;;;;;;;;;5037491;28;19917;-86
2021/12/18 15:03:44;;;;;;;;;;;;;;;;;;5037617;28;19917;-86
2021/12/18 15:06:11;;;;;;;;;;;;;;;;;;5038683;28;19921;-86
2021/12/18 15:08:37;;;;;;;;;;;;;;;;;;5037702;28;20016;-86
2021/12/18 15:11:21;;;;;;;;;;;;;;;;;;5037257;28;20316;-87
2021/12/18 15:13:51;;;;;;;;;;;;;;;;;;5037418;28;19972;-88
2021/12/18 15:16:37;;;;;;;;;;;;;;;;;;5036385;28;19920;-86
2021/12/18 15:19:05;;;;;;;;;;;;;;;;;;5037127;28;19920;-87
2021/12/18 15:21:30;;;;;;;;;;;;;;;;;;5036905;28;19921;-86
2021/12/18 15:23:58;;;;;;;;;;;;;;;;;;5037589;28;20441;-86
2021/12/18 15:26:28;;;;;;;;;;;;;;;;;;5036794;28;19987;-86
2021/12/18 15:28:55;;;;;;;;;;;;;;;;;;5043930;28;20304;-86
2021/12/18 15:31:20;;;;;;;;;;;;;;;;;;5036297;28;20392;-88
2021/12/18 15:33:46;;;;;;;;;;;;;;;;;;5036232;28;19922;-87
2021/12/18 15:36:11;;;;;;;;;;;;;;;;;;5036768;28;19913;-87
2021/12/18 15:38:36;;;;;;;;;;;;;;;;;;5036568;28;20269;-87
2021/12/18 15:41:02;;;;;;;;;;;;;;;;;;5036662;28;19913;-88
2021/12/18 15:43:27;;;;;;;;;;;;;;;;;;5035659;28;19924;-88
2021/12/18 15:45:55;;;;;;;;;;;;;;;;;;5036261;28;19963;-88
2021/12/18 15:48:23;;;;;;;;;;;;;;;;;;5034751;28;20011;-89
2021/12/18 15:50:48;;;;;;;;;;;;;;;;;;5035432;28;20416;-89
2021/12/18 15:53:13;;;;;;;;;;;;;;;;;;5034790;28;19924;-88
2021/12/18 15:55:39;;;;;;;;;;;;;;;;;;5036099;28;19967;-88
2021/12/18 15:58:06;;;;;;;;;;;;;;;;;;5035992;28;19917;-88
2021/12/18 16:00:33;;;;;;;;;;;;;;;;;;5035541;28;19964;-87
2021/12/18 16:03:00;;;;;;;;;;;;;;;;;;5035060;28;19921;-88
2021/12/18 16:05:26;;;;;;;;;;;;;;;;;;5035123;28;20297;-88
2021/12/18 16:07:55;;;;;;;;;;;;;;;;;;5034175;28;19913;-88
2021/12/18 16:10:21;;;;;;;;;;;;;;;;;;5034627;28;19921;-88
2021/12/18 16:12:46;;;;;;;;;;;;;;;;;;5034641;28;20251;-88
2021/12/18 16:15:11;;;;;;;;;;;;;;;;;;5034207;28;19913;-88
2021/12/18 16:17:36;;;;;;;;;;;;;;;;;;5034736;28;19940;-88
2021/12/18 16:20:05;;;;;;;;;;;;;;;;;;5035639;28;19917;-89
2021/12/18 16:22:30;;;;;;;;;;;;;;;;;;5035696;28;20331;-88
2021/12/18 16:24:56;;;;;;;;;;;;;;;;;;5034680;28;19913;-88
2021/12/18 16:27:21;;;;;;;;;;;;;;;;;;5035361;28;20011;-88
2021/12/18 16:29:46;;;;;;;;;;;;;;;;;;5035703;28;20393;-88
2021/12/18 16:32:11;;;;;;;;;;;;;;;;;;5035391;28;19921;-89
2021/12/18 16:34:39;;;;;;;;;;;;;;;;;;5035531;28;19917;-88
2021/12/18 16:37:07;;;;;;;;;;;;;;;;;;5037090;28;19913;-88
2021/12/18 16:39:36;;;;;;;;;;;;;;;;;;5034322;28;19921;-88
2021/12/18 16:42:01;;;;;;;;;;;;;;;;;;5017934;28;20270;-87
2021/12/18 16:44:26;;;;;;;;;;;;;;;;;;5034254;28;19917;-88
2021/12/18 16:46:52;;;;;;;;;;;;;;;;;;5034444;28;19916;-88
2021/12/18 16:49:17;;;;;;;;;;;;;;;;;;5034367;28;20326;-88
2021/12/18 16:51:42;;;;;;;;;;;;;;;;;;5034625;28;19921;-88
2021/12/18 16:54:07;;;;;;;;;;;;;;;;;;5034748;28;20390;-88
2021/12/18 16:56:33;;;;;;;;;;;;;;;;;;5046636;28;20092;-87
2021/12/18 16:59:00;;;;;;;;;;;;;;;;;;5036574;28;19928;-88
2021/12/18 17:01:25;;;;;;;;;;;;;;;;;;5034258;28;19980;-88
2021/12/18 17:03:54;;;;;;;;;;;;;;;;;;5034441;28;19925;-88
2021/12/18 17:06:20;;;;;;;;;;;;;;;;;;5033987;28;20235;-88
2021/12/18 17:08:45;;;;;;;;;;;;;;;;;;5035022;28;19995;-88
2021/12/18 17:11:15;;;;;;;;;;;;;;;;;;5017696;28;19923;-88
2021/12/18 17:13:41;;;;;;;;;;;;;;;;;;5033387;28;19921;-88
2021/12/18 17:16:09;;;;;;;;;;;;;;;;;;5034723;28;20342;-88
2021/12/18 17:18:39;;;;;;;;;;;;;;;;;;5017802;28;20415;-88
2021/12/18 17:21:04;;;;;;;;;;;;;;;;;;5034473;28;19967;-88
2021/12/18 17:23:30;;;;;;;;;;;;;;;;;;5035170;28;19917;-88
2021/12/18 17:25:55;;;;;;;;;;;;;;;;;;5034275;28;19979;-88